Time;durP1;ratioP1;P1;durP2;ratioP2;P2;SDS_P1;SDS_P2;PMS_P1;PMS_P2;Temp;Humidity;BMP_temperature;BMP_pressure;BME280_temperature;BME280_humidity;BME280_pressure;Samples;Min_cycle;Max_cycle;Signal;HPM_P1;HPM_P2
2022/01/20 00:00:44;;;;;;;;;3.50;3.00;;;;;6.35;79.61;102514.66;5055271;28;45432;-67
2022/01/20 00:03:15;;;;;;;;;4.25;2.25;;;;;6.40;79.95;102531.34;5037737;28;45563;-67
2022/01/20 00:27:15;;;;;;;;;5.25;3.75;;;;;6.15;80.24;102564.75;5118552;27;45440;-67
2022/01/20 00:32:33;;;;;;;;;5.25;2.75;;;;;6.05;80.37;102557.53;5118097;27;45342;-67
2022/01/20 00:37:27;;;;;;;;;7.00;2.00;;;;;6.09;80.79;102546.28;5118148;27;45351;-67
2022/01/20 00:39:53;;;;;;;;;10.00;4.00;;;;;5.89;80.58;102511.78;5117878;27;45509;-67
2022/01/20 00:42:19;;;;;;;;;4.00;3.00;;;;;5.99;80.37;102536.47;5118423;27;45273;-67
2022/01/20 00:44:46;;;;;;;;;4.25;3.00;;;;;5.96;80.61;102529.38;5118261;27;45371;-67
2022/01/20 00:47:12;;;;;;;;;9.00;4.00;;;;;6.05;80.74;102547.94;5117816;27;47491;-67
2022/01/20 00:49:38;;;;;;;;;3.25;2.00;;;;;6.04;80.63;102553.13;5118096;27;45417;-67
2022/01/20 00:52:05;;;;;;;;;4.00;3.50;;;;;6.04;80.91;102558.34;5118190;27;46152;-67
2022/01/20 00:54:31;;;;;;;;;2.00;2.00;;;;;6.03;80.61;102562.72;5118122;27;45501;-67
2022/01/20 00:56:57;;;;;;;;;5.00;2.75;;;;;6.03;80.92;102564.47;5120583;27;46457;-67
2022/01/20 00:59:22;;;;;;;;;8.75;2.50;;;;;5.97;80.83;102553.78;5121133;27;45301;-67
2022/01/20 01:01:48;;;;;;;;;3.25;3.25;;;;;5.89;81.03;102545.75;5121236;27;45426;-67
2022/01/20 01:04:13;;;;;;;;;5.00;2.75;;;;;5.93;80.95;102543.25;5121485;27;45474;-67
2022/01/20 01:06:55;;;;;;;;;8.25;2.25;;;;;5.98;80.78;102569.53;5121381;27;46133;-67
2022/01/20 01:09:21;;;;;;;;;4.50;2.50;;;;;6.04;80.80;102566.19;5120535;27;45351;-67
2022/01/20 01:11:48;;;;;;;;;12.25;7.00;;;;;6.05;80.67;102573.22;5121516;27;45230;-66
2022/01/20 01:14:16;;;;;;;;;2.25;2.25;;;;;6.05;80.72;102575.81;5121069;27;45319;-67
2022/01/20 01:24:40;;;;;;;;;4.00;1.00;;;;;6.17;80.20;102577.88;5121314;27;45409;-67
2022/01/20 01:27:06;;;;;;;;;3.50;1.75;;;;;6.16;80.11;102579.59;5120973;27;46628;-67
2022/01/20 01:32:07;;;;;;;;;3.75;3.75;;;;;6.13;80.24;102576.91;5120630;27;45423;-67
2022/01/20 01:34:35;;;;;;;;;5.25;2.00;;;;;6.10;80.23;102576.84;5121340;27;45165;-67
2022/01/20 01:39:26;;;;;;;;;4.00;1.00;;;;;6.05;80.04;102571.47;5120856;27;45291;-67
2022/01/20 01:41:51;;;;;;;;;5.50;2.00;;;;;6.14;79.67;102583.88;5120926;27;45871;-67
2022/01/20 01:44:26;;;;;;;;;2.75;1.75;;;;;6.04;79.82;102577.56;5121196;27;45296;-67
2022/01/20 01:46:53;;;;;;;;;2.00;2.00;;;;;6.00;80.04;102578.31;5120434;27;45609;-67
2022/01/20 01:49:20;;;;;;;;;1.50;1.50;;;;;6.01;79.84;102592.28;5120676;27;45470;-67
2022/01/20 01:51:46;;;;;;;;;2.00;1.50;;;;;6.01;80.15;102594.88;5120740;27;45338;-67
2022/01/20 01:54:13;;;;;;;;;4.00;2.75;;;;;5.97;80.37;102601.78;5119152;27;45514;-67
2022/01/20 01:56:40;;;;;;;;;2.00;2.00;;;;;5.80;80.63;102579.50;5120453;27;46209;-67
2022/01/20 01:59:06;;;;;;;;;2.00;2.00;;;;;5.90;81.03;102600.69;5120467;27;45356;-67
2022/01/20 02:01:34;;;;;;;;;1.00;1.00;;;;;5.74;80.49;102590.69;5120473;27;45299;-67
2022/01/20 02:04:10;;;;;;;;;4.00;3.00;;;;;5.72;80.42;102603.72;5120553;27;45510;-67
2022/01/20 02:19:55;;;;;;;;;3.00;2.00;;;;;5.53;81.56;102604.03;5119945;27;45305;-67
2022/01/20 02:22:20;;;;;;;;;4.00;2.25;;;;;5.46;81.70;102596.84;5120420;27;45458;-66
2022/01/20 02:24:46;;;;;;;;;5.25;4.50;;;;;5.46;81.67;102607.31;5120038;27;45550;-67
2022/01/20 02:27:11;;;;;;;;;6.25;3.25;;;;;5.52;81.99;102616.22;5120081;27;46422;-67
2022/01/20 02:29:37;;;;;;;;;4.00;2.75;;;;;5.26;82.00;102581.50;5119887;27;45330;-67
2022/01/20 02:32:03;;;;;;;;;6.75;4.00;;;;;5.46;82.78;102610.81;5120001;27;45354;-67
2022/01/20 02:34:30;;;;;;;;;2.00;2.00;;;;;5.44;82.87;102609.88;5120361;27;45370;-67
2022/01/20 02:36:58;;;;;;;;;3.75;2.50;;;;;5.43;82.97;102615.94;5119928;27;46356;-67
2022/01/20 02:44:54;;;;;;;;;8.00;3.25;;;;;5.34;83.28;102600.00;5120201;27;45308;-67
2022/01/20 02:47:26;;;;;;;;;8.50;2.00;;;;;5.34;83.95;102603.50;5119527;27;46665;-67
2022/01/20 02:49:52;;;;;;;;;3.25;3.00;;;;;5.33;83.78;102601.75;5119372;27;45490;-67
2022/01/20 02:52:17;;;;;;;;;4.00;4.00;;;;;5.33;84.18;102604.34;5119003;27;45482;-66
2022/01/20 02:54:43;;;;;;;;;7.50;3.00;;;;;5.22;84.33;102592.69;5120124;27;45324;-67
2022/01/20 02:57:10;;;;;;;;;3.75;2.75;;;;;5.20;84.34;102595.28;5119529;27;46263;-67
2022/01/20 02:59:35;;;;;;;;;4.00;4.00;;;;;5.21;84.51;102601.38;5119849;27;45187;-67
2022/01/20 03:02:02;;;;;;;;;6.00;3.25;;;;;5.18;84.55;102594.31;5119635;27;45476;-67
2022/01/20 03:04:28;;;;;;;;;3.25;2.50;;;;;5.21;85.34;102610.09;5119005;27;45465;-67
2022/01/20 03:06:53;;;;;;;;;6.75;3.50;;;;;5.19;85.10;102614.38;5119087;27;45887;-67
2022/01/20 03:09:19;;;;;;;;;7.00;3.00;;;;;5.20;84.89;102618.78;5119217;27;45494;-67
2022/01/20 03:11:46;;;;;;;;;5.75;3.00;;;;;5.15;85.65;102614.25;5119588;27;45350;-67
2022/01/20 03:14:11;;;;;;;;;4.25;3.25;;;;;5.16;85.21;102614.28;5101000;27;45214;-67
2022/01/20 03:16:36;;;;;;;;;9.25;5.50;;;;;5.10;85.62;102600.16;5119306;27;46574;-67
2022/01/20 03:19:02;;;;;;;;;2.00;2.00;;;;;5.08;86.14;102602.72;5118317;27;45189;-67
2022/01/20 03:21:27;;;;;;;;;6.00;6.00;;;;;5.09;86.40;102601.03;5119302;27;45272;-67
2022/01/20 03:23:52;;;;;;;;;6.67;4.00;;;;;5.06;86.59;102614.88;5119723;27;45442;-67
2022/01/20 03:26:18;;;;;;;;;7.00;4.00;;;;;4.97;86.95;102607.63;5119152;27;45402;-67
2022/01/20 03:28:43;;;;;;;;;6.00;4.00;;;;;5.07;86.77;102629.69;5119184;27;45403;-67
2022/01/20 03:31:09;;;;;;;;;6.00;6.00;;;;;5.05;86.73;102636.56;5119414;27;45724;-67
2022/01/20 03:33:34;;;;;;;;;5.75;3.75;;;;;5.01;86.95;102642.53;5119018;27;45430;-67
2022/01/20 03:36:00;;;;;;;;;8.67;4.67;;;;;5.02;87.03;102641.72;5118740;27;45368;-67
2022/01/20 03:38:25;;;;;;;;;6.00;5.00;;;;;5.03;87.39;102643.50;5119027;27;45177;-67
2022/01/20 03:40:51;;;;;;;;;5.50;5.00;;;;;5.05;86.82;102650.53;5119142;27;45441;-67
2022/01/20 03:43:17;;;;;;;;;10.25;6.75;;;;;4.88;87.23;102623.91;5119347;27;45285;-67
2022/01/20 03:45:46;;;;;;;;;8.25;4.00;;;;;5.01;87.50;102640.84;5118433;27;45456;-67
2022/01/20 03:48:12;;;;;;;;;9.67;4.00;;;;;4.92;87.31;102624.00;5118823;27;45287;-66
2022/01/20 03:53:22;;;;;;;;;9.00;7.67;;;;;4.96;87.99;102618.91;5119126;27;45398;-67
2022/01/20 03:55:48;;;;;;;;;11.00;7.00;;;;;5.01;87.40;102619.94;5118720;27;46133;-67
2022/01/20 03:58:14;;;;;;;;;7.25;6.25;;;;;5.03;87.54;102623.47;5118309;27;45506;-67
2022/01/20 04:00:39;;;;;;;;;6.00;5.50;;;;;4.98;87.64;102617.25;5118642;27;45273;-67
2022/01/20 04:03:04;;;;;;;;;8.50;7.00;;;;;4.91;87.83;102598.72;5118655;27;45289;-67
2022/01/20 04:05:30;;;;;;;;;8.00;7.00;;;;;5.01;87.90;102625.16;5117514;27;45566;-67
2022/01/20 04:07:55;;;;;;;;;14.33;7.33;;;;;4.96;87.67;102618.91;5116657;27;45451;-67
2022/01/20 04:10:21;;;;;;;;;16.50;7.00;;;;;4.93;87.20;102613.59;5118464;27;45588;-67
2022/01/20 04:12:46;;;;;;;;;7.50;6.00;;;;;4.88;87.82;102623.91;5118769;27;45288;-67
2022/01/20 04:15:12;;;;;;;;;9.50;6.50;;;;;4.92;88.11;102618.78;5118255;27;45472;-67
2022/01/20 04:17:41;;;;;;;;;9.00;6.00;;;;;4.95;88.12;102640.66;5118414;27;45455;-67
2022/01/20 04:20:07;;;;;;;;;8.50;7.00;;;;;4.97;87.87;102632.88;5118188;27;45496;-67
2022/01/20 04:22:32;;;;;;;;;11.50;6.00;;;;;4.94;87.86;102619.69;5118939;27;45295;-67
2022/01/20 04:24:58;;;;;;;;;7.00;4.00;;;;;4.96;87.28;102625.88;5118365;27;46344;-67
2022/01/20 04:27:23;;;;;;;;;7.00;4.50;;;;;4.97;87.76;102622.44;5118502;27;45466;-67
2022/01/20 04:29:48;;;;;;;;;11.00;8.00;;;;;4.99;87.75;102641.63;5119907;27;45308;-67
2022/01/20 04:32:14;;;;;;;;;11.00;7.50;;;;;4.90;87.78;102630.91;5122126;27;45358;-67
2022/01/20 04:34:39;;;;;;;;;10.50;8.00;;;;;4.90;88.03;102641.34;5121432;27;47538;-67
2022/01/20 04:37:06;;;;;;;;;11.67;7.00;;;;;4.89;88.29;102643.03;5121946;27;45421;-67
2022/01/20 04:39:35;;;;;;;;;7.25;7.25;;;;;4.90;88.30;102652.66;5122076;27;45385;-67
2022/01/20 04:42:00;;;;;;;;;17.33;10.33;;;;;4.81;88.52;102631.50;5122066;27;45636;-67
2022/01/20 04:44:47;;;;;;;;;9.00;9.00;;;;;4.88;88.48;102647.38;5121501;27;46333;-67
2022/01/20 04:47:30;;;;;;;;;12.00;9.00;;;;;4.90;88.91;102646.56;5121616;27;45233;-67
2022/01/20 04:58:08;;;;;;;;;8.33;5.33;;;;;5.09;88.74;102648.88;5121539;27;45457;-67
2022/01/20 05:00:33;;;;;;;;;12.00;8.00;;;;;5.01;88.86;102632.09;5121207;27;45454;-67
2022/01/20 05:02:59;;;;;;;;;8.00;6.00;;;;;5.15;88.32;102643.84;5121167;27;45292;-66
2022/01/20 05:05:24;;;;;;;;;9.25;8.00;;;;;5.07;88.27;102632.31;5121421;27;45462;-67
2022/01/20 05:07:49;;;;;;;;;13.33;9.67;;;;;5.15;88.26;102640.38;5121421;27;45334;-67
2022/01/20 05:10:15;;;;;;;;;9.00;7.67;;;;;5.16;87.71;102642.16;5120355;27;45340;-67
2022/01/20 05:13:05;;;;;;;;;17.75;10.25;;;;;5.17;87.93;102650.03;5121527;27;45333;-67
2022/01/20 05:15:32;;;;;;;;;6.25;5.00;;;;;5.14;88.27;102652.53;5121165;27;47084;-67
2022/01/20 05:17:58;;;;;;;;;7.25;6.75;;;;;5.17;88.31;102659.56;5119162;27;45473;-67
2022/01/20 05:20:23;;;;;;;;;8.75;7.25;;;;;5.14;87.78;102655.16;5121240;27;45315;-67
2022/01/20 05:22:48;;;;;;;;;6.75;6.25;;;;;5.04;87.54;102648.75;5121213;27;45321;-67
2022/01/20 05:25:14;;;;;;;;;13.00;9.00;;;;;5.08;88.02;102657.56;5121227;27;46354;-67
2022/01/20 05:27:39;;;;;;;;;13.50;7.50;;;;;5.05;87.51;102658.38;5120988;27;45409;-67
2022/01/20 05:30:05;;;;;;;;;13.00;9.00;;;;;4.97;88.14;102653.75;5121320;27;45770;-67
2022/01/20 05:32:30;;;;;;;;;7.00;7.00;;;;;4.63;88.07;102590.94;5121383;27;45375;-67
2022/01/20 05:34:56;;;;;;;;;9.67;6.00;;;;;5.05;88.32;102670.50;5120665;27;45439;-67
2022/01/20 05:37:21;;;;;;;;;10.00;6.00;;;;;5.00;88.31;102661.69;5120765;27;45411;-67
2022/01/20 05:39:47;;;;;;;;;13.00;8.00;;;;;5.04;87.72;102674.00;5120832;27;45514;-66
2022/01/20 05:42:12;;;;;;;;;8.00;6.00;;;;;5.05;88.12;102675.75;5120575;27;45309;-67
2022/01/20 05:44:37;;;;;;;;;7.67;7.67;;;;;4.94;88.28;102659.75;5118687;27;45553;-67
2022/01/20 05:47:09;;;;;;;;;7.00;6.00;;;;;5.10;88.13;102688.94;5120262;27;45329;-67
2022/01/20 05:49:35;;;;;;;;;9.67;7.00;;;;;5.10;88.10;102695.06;5120767;27;45306;-67
2022/01/20 05:52:02;;;;;;;;;9.00;6.00;;;;;5.09;87.99;102695.88;5120990;27;45572;-67
2022/01/20 05:54:28;;;;;;;;;10.00;6.25;;;;;5.11;88.09;102704.69;5120367;27;46931;-67
2022/01/20 05:56:54;;;;;;;;;9.00;3.00;;;;;5.04;87.97;102687.03;5119823;27;45437;-67
2022/01/20 05:59:19;;;;;;;;;7.25;7.25;;;;;5.13;88.10;102709.94;5120654;27;45440;-67
2022/01/20 06:01:52;;;;;;;;;13.25;8.00;;;;;5.04;87.97;102697.50;5120377;27;45182;-67
2022/01/20 06:04:17;;;;;;;;;11.67;7.67;;;;;5.09;87.67;102703.72;5120193;27;45353;-67
2022/01/20 06:06:44;;;;;;;;;7.67;5.33;;;;;5.09;87.42;102711.56;5120501;27;45392;-67
2022/01/20 06:09:09;;;;;;;;;11.33;8.33;;;;;4.95;87.80;102686.72;5120551;27;45265;-67
2022/01/20 06:11:35;;;;;;;;;10.33;8.00;;;;;5.03;87.86;102711.38;5120300;27;45475;-67
2022/01/20 06:14:00;;;;;;;;;8.33;8.00;;;;;4.89;87.78;102692.63;5120182;27;45594;-67
2022/01/20 06:16:26;;;;;;;;;12.33;7.00;;;;;4.88;87.95;102698.72;5101611;27;45491;-67
2022/01/20 06:18:52;;;;;;;;;10.33;9.67;;;;;4.97;87.91;102719.88;5120305;27;45301;-67
2022/01/20 06:21:17;;;;;;;;;11.00;8.67;;;;;5.00;87.79;102726.94;5120421;27;45369;-67
2022/01/20 06:23:43;;;;;;;;;13.67;8.00;;;;;5.01;87.57;102733.91;5120145;27;46030;-67
2022/01/20 06:26:08;;;;;;;;;18.33;12.33;;;;;5.01;87.29;102740.03;5120194;27;45332;-67
2022/01/20 06:28:37;;;;;;;;;9.00;8.67;;;;;5.04;87.36;102740.13;5120054;27;45371;-67
2022/01/20 06:31:03;;;;;;;;;9.00;6.00;;;;;4.82;87.51;102704.63;5119681;27;45605;-67
2022/01/20 06:33:28;;;;;;;;;42.00;35.67;;;;;4.97;87.59;102727.72;5119683;27;46635;-67
2022/01/20 06:35:54;;;;;;;;;17.67;11.67;;;;;5.10;87.06;102751.59;5119642;27;45198;-67
2022/01/20 06:38:20;;;;;;;;;10.33;7.67;;;;;5.12;86.88;102753.44;5119695;27;45199;-67
2022/01/20 06:40:45;;;;;;;;;6.67;5.33;;;;;5.13;87.10;102757.81;5119661;27;45216;-67
2022/01/20 06:43:11;;;;;;;;;14.00;10.33;;;;;5.13;86.99;102755.22;5119605;27;46509;-67
2022/01/20 06:45:36;;;;;;;;;9.00;7.00;;;;;5.06;86.98;102742.78;5119992;27;45415;-67
2022/01/20 06:48:02;;;;;;;;;10.33;7.33;;;;;5.06;86.95;102738.44;5119897;27;45289;-67
2022/01/20 06:50:28;;;;;;;;;9.75;7.00;;;;;5.09;86.83;102740.28;5119662;27;45434;-67
2022/01/20 06:52:54;;;;;;;;;13.67;8.33;;;;;5.05;86.60;102735.78;5118749;27;45279;-66
2022/01/20 06:55:19;;;;;;;;;11.50;8.50;;;;;4.93;87.05;102723.22;5119190;27;45315;-67
2022/01/20 06:57:45;;;;;;;;;6.50;6.50;;;;;5.13;87.17;102750.00;5119792;27;45340;-67
2022/01/20 07:00:15;;;;;;;;;9.00;7.67;;;;;5.19;86.78;102755.41;5118927;27;45315;-67
2022/01/20 07:02:41;;;;;;;;;9.00;9.00;;;;;5.29;86.67;102766.16;5118112;27;47603;-67
2022/01/20 07:05:07;;;;;;;;;14.00;12.00;;;;;5.29;86.07;102761.81;5119290;27;45305;-67
2022/01/20 07:07:33;;;;;;;;;8.25;6.25;;;;;5.35;85.96;102766.34;5119557;27;45308;-67
2022/01/20 07:10:01;;;;;;;;;8.75;7.00;;;;;5.27;85.93;102745.22;5119432;27;45477;-67
2022/01/20 07:12:26;;;;;;;;;7.25;2.50;;;;;5.37;85.99;102773.41;5118304;27;46589;-67
2022/01/20 07:14:52;;;;;;;;;6.25;3.00;;;;;5.41;85.87;102777.84;5119008;27;45333;-67
2022/01/20 07:17:17;;;;;;;;;3.75;1.50;;;;;5.38;85.87;102782.97;5116939;27;45177;-66
2022/01/20 07:19:43;;;;;;;;;13.00;8.00;;;;;5.45;86.17;102786.69;5118025;27;45221;-67
2022/01/20 07:22:08;;;;;;;;;8.50;6.00;;;;;5.40;85.62;102772.59;5119164;27;46540;-66
2022/01/20 07:24:33;;;;;;;;;5.00;2.50;;;;;5.52;85.59;102783.44;5119261;27;45266;-67
2022/01/20 07:26:59;;;;;;;;;3.25;3.25;;;;;5.55;85.28;102787.88;5118474;27;45422;-67
2022/01/20 07:29:26;;;;;;;;;6.00;6.00;;;;;5.48;85.48;102778.06;5123258;27;45292;-67
2022/01/20 07:31:53;;;;;;;;;7.00;3.00;;;;;5.59;85.15;102781.88;5125611;27;45592;-67
2022/01/20 07:34:19;;;;;;;;;2.00;2.00;;;;;5.63;84.87;102782.88;5116940;27;45363;-67
2022/01/20 07:36:44;;;;;;;;;5.75;1.75;;;;;5.64;84.74;102782.91;5118497;27;46355;-67
2022/01/20 07:39:10;;;;;;;;;3.25;2.00;;;;;5.61;84.36;102788.06;5119092;27;45424;-67
2022/01/20 07:41:35;;;;;;;;;2.50;1.50;;;;;5.56;84.36;102773.94;5119071;27;46384;-67
2022/01/20 07:44:00;;;;;;;;;1.00;1.00;;;;;5.73;84.50;102805.84;5117811;27;45307;-67
2022/01/20 07:46:26;;;;;;;;;11.75;11.75;;;;;5.81;83.57;102824.34;5118624;27;45439;-67
2022/01/20 07:48:51;;;;;;;;;1.00;1.00;;;;;5.77;82.86;102792.03;5117822;27;45474;-67
2022/01/20 07:51:17;;;;;;;;;2.00;0.75;;;;;5.81;83.17;102814.81;5118123;27;45376;-67
2022/01/20 07:53:43;;;;;;;;;4.00;1.00;;;;;5.78;83.25;102806.88;5134746;27;45363;-67
2022/01/20 07:56:09;;;;;;;;;0.75;0.75;;;;;5.85;83.22;102832.38;5139410;27;45483;-67
2022/01/20 07:58:35;;;;;;;;;1.75;1.00;;;;;5.79;83.37;102820.81;5119854;27;45484;-67
2022/01/20 08:01:02;;;;;;;;;6.75;4.75;;;;;5.80;83.23;102833.06;5115750;27;46792;-67
2022/01/20 08:03:28;;;;;;;;;3.50;1.75;;;;;5.50;83.71;102800.78;5117777;27;45537;-67
2022/01/20 08:05:53;;;;;;;;;2.00;1.50;;;;;5.71;83.66;102838.91;5116835;27;45289;-67
2022/01/20 08:08:18;;;;;;;;;1.00;0.00;;;;;5.68;83.34;102847.53;5118714;27;45523;-67
2022/01/20 08:10:44;;;;;;;;;6.00;3.00;;;;;5.62;84.59;102842.09;5118342;27;45633;-67
2022/01/20 08:13:09;;;;;;;;;41.33;34.33;;;;;5.71;84.48;102855.44;5118319;27;45403;-67
2022/01/20 08:15:35;;;;;;;;;9.75;8.25;;;;;5.66;84.57;102837.84;5118659;27;45345;-67
2022/01/20 08:18:00;;;;;;;;;31.33;19.33;;;;;5.86;84.50;102859.38;5118778;27;45250;-67
2022/01/20 08:20:26;;;;;;;;;21.33;16.67;;;;;5.82;84.47;102842.69;5118093;27;46416;-67
2022/01/20 08:22:51;;;;;;;;;27.67;21.33;;;;;5.86;84.32;102854.16;5118536;27;45393;-67
2022/01/20 08:25:18;;;;;;;;;3.25;2.00;;;;;5.95;83.62;102858.78;5118408;27;45235;-67
2022/01/20 08:27:45;;;;;;;;;2.00;2.00;;;;;5.87;83.38;102843.75;5118521;27;45189;-66
2022/01/20 08:30:14;;;;;;;;;8.75;5.25;;;;;5.97;83.24;102860.66;5117909;27;46453;-66
2022/01/20 08:32:40;;;;;;;;;3.00;2.00;;;;;5.87;83.32;102845.47;5118056;27;45307;-66
2022/01/20 08:35:09;;;;;;;;;7.00;2.00;;;;;5.88;82.99;102844.63;5118228;27;45442;-66
2022/01/20 08:37:35;;;;;;;;;3.00;2.00;;;;;6.03;82.95;102871.28;5118217;27;45393;-66
2022/01/20 08:40:04;;;;;;;;;5.00;3.00;;;;;6.08;83.06;102868.81;5116299;27;45442;-66
2022/01/20 08:42:30;;;;;;;;;2.75;0.25;;;;;6.08;81.87;102860.94;5114525;27;45432;-66
2022/01/20 08:44:55;;;;;;;;;3.00;3.00;;;;;6.14;82.21;102862.88;5099597;27;45441;-66
2022/01/20 08:47:21;;;;;;;;;4.00;2.00;;;;;6.09;81.88;102847.03;5118145;27;45378;-66
2022/01/20 08:49:48;;;;;;;;;3.00;1.50;;;;;6.24;81.41;102863.16;5117869;27;45513;-66
2022/01/20 08:52:18;;;;;;;;;1.50;0.50;;;;;6.26;81.36;102861.50;5116347;27;45506;-66
2022/01/20 08:54:47;;;;;;;;;10.25;10.25;;;;;6.33;81.44;102872.13;5117572;27;45376;-66
2022/01/20 08:57:15;;;;;;;;;3.00;3.00;;;;;6.38;80.90;102862.72;5118055;27;45520;-66
2022/01/20 08:59:42;;;;;;;;;5.50;4.00;;;;;6.44;80.86;102866.38;5129697;27;46391;-66
2022/01/20 09:02:09;;;;;;;;;3.50;2.00;;;;;6.57;80.94;102880.69;5138100;27;45347;-66
2022/01/20 09:04:34;;;;;;;;;1.00;1.00;;;;;6.57;80.09;102877.22;5138186;27;45355;-66
2022/01/20 09:07:01;;;;;;;;;6.50;2.00;;;;;6.69;80.20;102881.91;5138783;27;45324;-66
2022/01/20 09:09:26;;;;;;;;;7.00;2.50;;;;;6.70;78.97;102876.69;5138567;27;46406;-66
2022/01/20 09:12:14;;;;;;;;;6.50;3.50;;;;;6.71;79.47;102881.09;5119589;27;45355;-66
2022/01/20 09:17:26;;;;;;;;;3.25;3.25;;;;;6.86;79.07;102893.72;5140746;27;45384;-66
2022/01/20 09:19:52;;;;;;;;;2.50;1.75;;;;;6.83;77.47;102898.00;5141575;27;47530;-66
2022/01/20 09:22:18;;;;;;;;;2.50;1.00;;;;;6.82;76.82;102896.22;5141986;27;45469;-66
2022/01/20 09:24:45;;;;;;;;;5.50;4.00;;;;;6.85;77.70;102907.66;5141714;27;45584;-66
2022/01/20 09:27:11;;;;;;;;;7.00;2.00;;;;;6.91;77.27;102915.69;5142201;27;45258;-66
2022/01/20 09:29:37;;;;;;;;;7.75;7.00;;;;;6.91;76.50;102906.94;5141614;27;46635;-66
2022/01/20 09:32:05;;;;;;;;;7.00;4.75;;;;;7.02;76.32;102907.25;5141344;27;45351;-66
2022/01/20 09:34:31;;;;;;;;;6.50;2.25;;;;;7.31;74.65;102918.47;5140571;27;45427;-66
2022/01/20 09:36:57;;;;;;;;;7.50;3.50;;;;;7.40;74.89;102908.22;5122870;27;45383;-66
2022/01/20 09:39:22;;;;;;;;;12.75;4.25;;;;;7.57;72.34;102920.88;5120428;27;46082;-66
2022/01/20 09:41:48;;;;;;;;;11.75;8.25;;;;;7.63;73.33;102915.78;5120477;27;45315;-66
2022/01/20 09:44:14;;;;;;;;;4.75;4.75;;;;;7.66;72.41;102928.97;5120873;27;45332;-66
2022/01/20 09:46:39;;;;;;;;;11.00;7.50;;;;;7.59;72.58;102916.56;5121099;27;45418;-66
2022/01/20 09:49:05;;;;;;;;;4.75;4.00;;;;;7.57;72.52;102923.50;5120670;27;46299;-67
2022/01/20 09:51:31;;;;;;;;;3.00;3.00;;;;;7.75;71.81;102925.69;5120595;27;45384;-66
2022/01/20 09:53:56;;;;;;;;;5.25;2.75;;;;;7.67;70.65;102879.19;5120261;27;45376;-66
2022/01/20 09:56:22;;;;;;;;;10.00;9.00;;;;;8.28;70.13;102933.91;5120953;27;45428;-66
2022/01/20 09:58:48;;;;;;;;;8.00;4.75;;;;;8.78;68.44;102929.72;5120526;27;45571;-66
2022/01/20 10:01:15;;;;;;;;;3.50;3.00;;;;;9.03;66.76;102932.00;5120455;27;45304;-66
2022/01/20 10:03:46;;;;;;;;;9.75;5.00;;;;;8.98;64.11;102941.50;5120511;27;45284;-66
2022/01/20 10:06:12;;;;;;;;;6.00;3.00;;;;;8.90;66.26;102950.97;5120283;27;45266;-66
2022/01/20 10:08:37;;;;;;;;;3.00;1.50;;;;;8.71;64.38;102929.63;5120310;27;46294;-66
2022/01/20 10:11:07;;;;;;;;;2.50;2.50;;;;;8.74;66.58;102954.16;5120644;27;45252;-66
2022/01/20 10:13:35;;;;;;;;;3.50;2.00;;;;;8.46;65.08;102914.19;5120171;27;45350;-66
2022/01/20 10:16:13;;;;;;;;;4.00;3.25;;;;;8.62;66.26;102957.41;5120561;27;45373;-66
2022/01/20 10:18:50;;;;;;;;;3.00;2.00;;;;;8.67;65.85;102958.38;5120114;27;46735;-66
2022/01/20 10:21:16;;;;;;;;;4.00;1.00;;;;;8.69;65.36;102946.19;5120177;27;45333;-66
2022/01/20 10:23:48;;;;;;;;;4.25;2.75;;;;;8.79;64.63;102957.78;5120158;27;45419;-66
2022/01/20 10:26:19;;;;;;;;;3.75;2.75;;;;;8.80;66.13;102967.41;5120302;27;45229;-66
2022/01/20 10:28:57;;;;;;;;;6.00;3.50;;;;;8.68;63.86;102957.53;5119915;27;46176;-66
2022/01/20 10:31:39;;;;;;;;;2.00;2.00;;;;;8.68;65.08;102953.19;5120223;27;45272;-66
2022/01/20 10:34:31;;;;;;;;;4.50;2.00;;;;;8.73;64.24;102965.50;5120003;27;45474;-66
2022/01/20 10:37:00;;;;;;;;;5.50;2.00;;;;;8.71;64.00;102978.63;5138954;27;45449;-66
2022/01/20 10:39:40;;;;;;;;;8.50;5.75;;;;;8.75;65.42;102983.09;5140439;27;45585;-66
2022/01/20 10:42:28;;;;;;;;;3.00;3.00;;;;;8.83;63.58;102988.47;5140251;27;45364;-66
2022/01/20 10:44:56;;;;;;;;;1.00;1.00;;;;;8.47;64.21;102945.72;5140597;27;45462;-66
2022/01/20 10:47:26;;;;;;;;;4.00;3.00;;;;;8.67;65.57;102993.44;5140822;27;45429;-66
2022/01/20 10:49:52;;;;;;;;;5.00;4.00;;;;;8.63;66.16;102993.34;5140181;27;46180;-66
2022/01/20 10:52:23;;;;;;;;;4.50;2.00;;;;;8.60;66.54;102996.78;5140055;27;45392;-66
2022/01/20 10:54:54;;;;;;;;;3.00;1.25;;;;;8.66;67.04;102981.16;5140419;27;45382;-66
2022/01/20 10:57:32;;;;;;;;;3.75;3.75;;;;;8.86;66.17;102988.56;5140468;27;45692;-66
2022/01/20 11:00:05;;;;;;;;;4.50;2.75;;;;;8.95;65.99;102977.38;5140217;27;45925;-65
2022/01/20 11:02:31;;;;;;;;;4.50;4.00;;;;;9.06;65.86;102976.72;5139961;27;45371;-66
2022/01/20 11:04:58;;;;;;;;;9.75;4.00;;;;;9.03;64.28;102987.19;5140233;27;45622;-66
2022/01/20 11:07:24;;;;;;;;;3.00;1.75;;;;;8.80;64.95;102980.53;5140475;27;45575;-66
2022/01/20 11:09:56;;;;;;;;;6.50;4.00;;;;;8.75;66.68;103008.47;5140265;27;45542;-66
2022/01/20 11:12:22;;;;;;;;;8.25;2.00;;;;;8.58;67.10;103006.34;5140078;27;45352;-66
2022/01/20 11:14:52;;;;;;;;;1.75;1.75;;;;;8.37;67.95;102993.59;5140125;27;45229;-66
2022/01/20 11:17:23;;;;;;;;;2.00;2.00;;;;;8.35;68.42;103008.41;5111117;27;45634;-66
2022/01/20 11:19:49;;;;;;;;;3.75;1.00;;;;;8.31;69.58;103006.59;5098578;27;46482;-66
2022/01/20 11:22:17;;;;;;;;;8.25;2.00;;;;;8.06;69.90;102963.13;5098517;27;45404;-66
2022/01/20 11:24:43;;;;;;;;;1.00;1.00;;;;;8.32;69.84;103003.09;5098762;27;45458;-66
2022/01/20 11:27:14;;;;;;;;;3.75;2.00;;;;;8.28;68.86;103001.28;5098871;27;45308;-66
2022/01/20 11:29:42;;;;;;;;;4.25;0.50;;;;;8.37;68.18;103006.72;5098193;27;47384;-66
2022/01/20 11:32:25;;;;;;;;;4.25;1.00;;;;;8.37;67.60;102997.09;5098584;27;45380;-66
2022/01/20 11:35:06;;;;;;;;;21.00;20.33;;;;;8.40;67.99;102998.91;5080217;27;45269;-66
2022/01/20 11:37:36;;;;;;;;;4.25;4.00;;;;;8.46;67.67;102992.97;5098482;27;45559;-66
2022/01/20 11:40:09;;;;;;;;;2.00;2.00;;;;;8.56;66.06;102994.94;5097624;27;46631;-66
2022/01/20 11:42:35;;;;;;;;;2.00;1.25;;;;;8.53;65.46;102984.38;5098332;27;45711;-66
2022/01/20 11:45:00;;;;;;;;;4.00;2.00;;;;;8.36;66.61;102958.59;5098522;27;45304;-66
2022/01/20 11:47:32;;;;;;;;;2.75;1.00;;;;;8.51;65.94;103007.97;5098646;27;45349;-66
2022/01/20 11:49:58;;;;;;;;;3.00;1.00;;;;;8.46;65.91;103011.34;5098331;27;46489;-66
2022/01/20 11:52:26;;;;;;;;;0.00;0.00;;;;;8.26;65.69;103000.34;5098124;27;45455;-66
2022/01/20 11:54:52;;;;;;;;;2.50;1.00;;;;;8.05;67.72;103003.34;5098006;27;45246;-66
2022/01/20 11:57:30;;;;;;;;;1.75;1.00;;;;;8.08;67.67;103019.16;5080213;27;45581;-66
2022/01/20 12:00:01;;;;;;;;;3.75;1.00;;;;;7.86;68.41;102995.03;5097789;27;45357;-66
2022/01/20 12:02:33;;;;;;;;;5.25;4.00;;;;;7.96;69.45;103017.13;5097531;27;45268;-66
2022/01/20 12:04:59;;;;;;;;;4.00;2.00;;;;;7.94;69.94;103013.56;5098102;27;45284;-66
2022/01/20 12:07:34;;;;;;;;;2.00;2.00;;;;;7.99;70.12;103006.72;5098124;27;45425;-66
2022/01/20 12:10:12;;;;;;;;;3.75;2.75;;;;;8.03;70.28;103008.56;5097434;27;45551;-66
2022/01/20 12:12:39;;;;;;;;;1.00;1.00;;;;;7.83;69.57;102966.97;5097990;27;45697;-65
2022/01/20 12:15:17;;;;;;;;;11.75;7.00;;;;;8.26;70.12;103001.22;5097895;27;45367;-66
2022/01/20 12:17:54;;;;;;;;;1.00;1.00;;;;;8.41;68.61;103005.97;5097999;27;45621;-66
2022/01/20 12:20:22;;;;;;;;;1.25;1.00;;;;;8.49;67.76;103014.03;5097747;27;46253;-66
2022/01/20 12:22:48;;;;;;;;;0.75;0.00;;;;;8.48;65.53;103007.91;5097910;27;45489;-66
2022/01/20 12:25:26;;;;;;;;;5.75;4.25;;;;;8.43;65.88;103001.63;5097655;27;45441;-66
2022/01/20 12:28:00;;;;;;;;;3.25;2.00;;;;;8.48;65.50;103004.38;5097917;27;45300;-66
2022/01/20 12:30:26;;;;;;;;;11.50;9.25;;;;;8.52;66.05;102998.34;5097455;27;45493;-66
2022/01/20 12:33:11;;;;;;;;;7.00;4.75;;;;;8.50;66.54;102987.81;5097496;27;45336;-66
2022/01/20 12:36:07;;;;;;;;;4.25;3.00;;;;;8.63;66.33;103003.84;5097585;27;45272;-65
2022/01/20 12:38:39;;;;;;;;;5.50;2.25;;;;;8.61;65.42;103000.28;5097961;27;45543;-65
2022/01/20 12:41:18;;;;;;;;;6.00;2.00;;;;;8.60;65.72;103001.16;5097401;27;46255;-66
2022/01/20 12:44:06;;;;;;;;;3.00;1.50;;;;;8.57;66.11;103001.97;5097545;27;45234;-66
2022/01/20 12:46:41;;;;;;;;;3.00;1.00;;;;;8.40;66.01;102982.28;5097486;27;45501;-66